Time;durP1;ratioP1;P1;durP2;ratioP2;P2;SDS_P1;SDS_P2;PMS_P1;PMS_P2;Temp;Humidity;BMP_temperature;BMP_pressure;BME280_temperature;BME280_humidity;BME280_pressure;Samples;Min_cycle;Max_cycle;Signal;HPM_P1;HPM_P2
2023/05/21 00:07:22;;;;;;;15.27;10.40;;;9.80;99.90;;;;;;25941182;22;20007;-47
2023/05/21 00:17:24;;;;;;;12.95;10.68;;;10.00;99.90;;;;;;25967855;22;20007;-57
2023/05/21 00:27:26;;;;;;;15.65;10.68;;;9.90;99.90;;;;;;25967957;22;20004;-57
2023/05/21 00:37:32;;;;;;;13.63;9.55;;;10.00;99.90;;;;;;25966905;22;20010;-56
2023/05/21 00:47:35;;;;;;;12.40;10.38;;;10.20;99.90;;;;;;25965118;22;20016;-57
2023/05/21 00:57:37;;;;;;;14.98;10.90;;;10.20;99.90;;;;;;25965602;22;20085;-57
2023/05/21 01:07:40;;;;;;;12.50;9.75;;;10.30;99.90;;;;;;25966272;22;20008;-51
2023/05/21 01:17:44;;;;;;;13.40;10.10;;;10.70;99.90;;;;;;25965346;22;20496;-54
2023/05/21 01:27:46;;;;;;;15.20;10.57;;;10.50;99.90;;;;;;25965381;22;20015;-56
2023/05/21 01:37:56;;;;;;;13.23;10.63;;;10.40;99.90;;;;;;25966423;22;20007;-50
2023/05/21 01:47:58;;;;;;;;;;;10.30;99.90;;;;;;25962284;22;20034;-57
2023/05/21 01:58:00;;;;;;;13.48;10.95;;;10.50;99.90;;;;;;25964631;22;19907;-51
2023/05/21 02:08:02;;;;;;;14.52;11.15;;;10.50;99.90;;;;;;25937623;22;20004;-49
2023/05/21 02:18:04;;;;;;;12.50;9.70;;;10.60;99.90;;;;;;25963969;22;20308;-51
2023/05/21 02:28:06;;;;;;;14.48;10.32;;;10.70;99.90;;;;;;25968216;22;20288;-51
2023/05/21 02:38:08;;;;;;;11.95;10.40;;;10.80;99.90;;;;;;25972113;22;20008;-50
2023/05/21 02:48:10;;;;;;;13.73;10.93;;;10.70;99.90;;;;;;25944469;22;20037;-57
2023/05/21 02:58:15;;;;;;;15.02;11.02;;;10.50;99.90;;;;;;25986687;22;20435;-57
2023/05/21 03:08:17;;;;;;;14.13;10.07;;;10.40;99.90;;;;;;25971398;22;20007;-57
2023/05/21 03:18:19;;;;;;;13.23;10.30;;;10.70;99.90;;;;;;25942594;22;20011;-50
2023/05/21 03:28:21;;;;;;;13.52;10.65;;;10.60;99.90;;;;;;25943310;22;20000;-51
2023/05/21 03:38:25;;;;;;;15.23;11.13;;;10.50;99.90;;;;;;25943865;22;20418;-57
2023/05/21 03:48:26;;;;;;;17.42;11.18;;;10.40;99.90;;;;;;25942311;22;20019;-50
2023/05/21 03:58:29;;;;;;;14.05;10.70;;;10.50;99.90;;;;;;25941854;22;20003;-50
2023/05/21 04:08:33;;;;;;;12.55;10.30;;;10.70;99.90;;;;;;25941919;22;20000;-50
2023/05/21 04:18:35;;;;;;;12.75;9.32;;;10.80;99.90;;;;;;25967888;22;20011;-57
2023/05/21 04:28:40;;;;;;;13.65;9.80;;;10.90;99.90;;;;;;25938936;22;20015;-50
2023/05/21 04:38:45;;;;;;;14.32;10.93;;;10.90;99.90;;;;;;25941992;22;20089;-46
2023/05/21 04:48:49;;;;;;;13.32;10.50;;;10.90;99.90;;;;;;25939341;22;20014;-47
2023/05/21 04:58:53;;;;;;;12.25;10.18;;;11.10;99.90;;;;;;25939477;22;20288;-47
2023/05/21 05:08:55;;;;;;;12.40;9.52;;;11.20;99.90;;;;;;25939095;22;20007;-58
2023/05/21 05:18:57;;;;;;;12.77;9.70;;;11.50;99.90;;;;;;25938680;22;20011;-46
2023/05/21 05:28:59;;;;;;;12.75;10.10;;;11.70;99.90;;;;;;25965505;22;20004;-57
2023/05/21 05:39:00;;;;;;;11.95;10.35;;;11.70;99.90;;;;;;25938151;22;20031;-47
2023/05/21 05:49:02;;;;;;;10.55;9.43;;;11.40;99.90;;;;;;25937748;22;20503;-50
2023/05/21 05:59:04;;;;;;;14.93;9.52;;;11.30;99.90;;;;;;25938683;22;20358;-46
2023/05/21 06:09:08;;;;;;;12.43;10.00;;;11.20;99.90;;;;;;25936168;22;20312;-57
2023/05/21 06:19:10;;;;;;;12.23;9.45;;;11.20;99.90;;;;;;25963868;22;20004;-47
2023/05/21 06:29:12;;;;;;;12.48;9.82;;;11.10;99.90;;;;;;25964025;22;20389;-47
2023/05/21 06:39:14;;;;;;;12.80;9.18;;;11.20;99.90;;;;;;25962217;22;20003;-51
2023/05/21 06:49:16;;;;;;;14.95;9.75;;;11.40;99.90;;;;;;25935955;22;20425;-50
2023/05/21 06:59:18;;;;;;;11.23;8.55;;;11.40;99.90;;;;;;25936316;22;20010;-51
2023/05/21 07:09:20;;;;;;;11.57;8.70;;;11.60;99.90;;;;;;25962076;22;20008;-49
2023/05/21 07:19:23;;;;;;;10.25;9.13;;;12.10;99.90;;;;;;25943217;22;20061;-50
2023/05/21 07:29:25;;;;;;;12.40;8.40;;;12.10;99.90;;;;;;25970165;22;20065;-49
2023/05/21 07:39:28;;;;;;;10.02;8.02;;;12.20;99.90;;;;;;25940781;22;20335;-49
2023/05/21 07:49:30;;;;;;;15.10;8.48;;;13.00;99.90;;;;;;25942006;22;20015;-58
2023/05/21 07:59:33;;;;;;;13.82;8.43;;;14.00;99.90;;;;;;25942211;22;20379;-45
2023/05/21 08:09:35;;;;;;;12.23;8.85;;;14.30;99.90;;;;;;25941541;22;20054;-50
2023/05/21 08:19:38;;;;;;;11.32;8.80;;;14.40;99.90;;;;;;25941357;22;20451;-50
2023/05/21 08:29:40;;;;;;;10.35;8.10;;;14.70;99.90;;;;;;25967073;22;20049;-58
2023/05/21 08:39:42;;;;;;;10.00;8.45;;;15.20;99.90;;;;;;25967194;22;20007;-51
2023/05/21 08:49:46;;;;;;;9.77;8.45;;;16.20;99.90;;;;;;25939797;22;20327;-50
2023/05/21 08:59:48;;;;;;;11.43;8.30;;;16.00;99.90;;;;;;25939463;22;20018;-58
2023/05/21 09:10:03;;;;;;;12.63;7.60;;;15.70;99.90;;;;;;25979958;22;20349;-58
2023/05/21 09:20:12;;;;;;;11.18;7.10;;;15.50;99.90;;;;;;25980455;22;20065;-59
2023/05/21 09:30:18;;;;;;;9.75;6.85;;;16.60;99.90;;;;;;25980406;22;20004;-50
2023/05/21 09:40:22;;;;;;;7.68;6.78;;;17.80;99.90;;;;;;25964643;22;20077;-50
2023/05/21 09:50:30;;;;;;;8.75;5.60;;;17.60;99.90;;;;;;25940231;22;20023;-49
2023/05/21 10:00:32;;;;;;;7.03;5.78;;;18.00;99.90;;;;;;26006823;22;20014;-59
2023/05/21 10:10:35;;;;;;;7.70;6.03;;;17.80;99.90;;;;;;25935969;22;20150;-53
2023/05/21 10:20:37;;;;;;;6.85;5.78;;;16.60;99.90;;;;;;25963608;22;19999;-50
2023/05/21 10:30:41;;;;;;;6.13;5.20;;;17.30;99.90;;;;;;25963137;22;20000;-58
2023/05/21 10:40:43;;;;;;;10.50;5.70;;;17.00;99.90;;;;;;25963220;22;20000;-58
2023/05/21 10:51:15;;;;;;;7.53;5.35;;;16.70;99.90;;;;;;25968601;22;20023;-50
2023/05/21 11:01:18;;;;;;;10.43;5.85;;;17.30;99.90;;;;;;26013624;22;20008;-58
2023/05/21 11:11:47;;;;;;;8.25;6.10;;;18.30;99.90;;;;;;25971036;22;20015;-49
2023/05/21 11:21:54;;;;;;;8.88;6.20;;;19.10;99.70;;;;;;25970379;22;20004;-56
2023/05/21 11:32:04;;;;;;;8.73;5.85;;;19.30;99.30;;;;;;25969957;22;20054;-55
2023/05/21 11:42:05;;;;;;;9.38;7.60;;;19.40;99.80;;;;;;26012010;22;20004;-46
2023/05/21 11:52:09;;;;;;;7.40;6.60;;;18.70;99.90;;;;;;25969152;22;20016;-58
2023/05/21 12:02:19;;;;;;;10.40;5.80;;;20.30;99.90;;;;;;25967284;22;20468;-59
2023/05/21 12:12:23;;;;;;;7.95;5.82;;;19.90;98.10;;;;;;26009821;22;20007;-59
2023/05/21 12:22:26;;;;;;;6.93;5.20;;;19.20;98.40;;;;;;25966790;22;20327;-59
2023/05/21 12:32:28;;;;;;;7.72;5.68;;;19.30;97.10;;;;;;25966388;22;20080;-59
2023/05/21 12:42:34;;;;;;;7.80;5.88;;;18.80;98.50;;;;;;25967436;22;20011;-60
2023/05/21 12:52:35;;;;;;;7.57;6.07;;;20.30;98.80;;;;;;25971041;22;20012;-51
2023/05/21 13:02:42;;;;;;;8.93;5.97;;;20.60;98.60;;;;;;25964554;22;20011;-60
2023/05/21 13:12:44;;;;;;;6.15;5.55;;;20.90;97.50;;;;;;26007858;22;20006;-50
2023/05/21 13:22:47;;;;;;;8.80;6.13;;;20.10;98.70;;;;;;25965444;22;20022;-60
2023/05/21 13:32:50;;;;;;;8.95;6.50;;;18.80;98.70;;;;;;25965131;22;19999;-58
2023/05/21 13:42:52;;;;;;;9.02;6.40;;;18.70;98.80;;;;;;25936266;22;20073;-55
2023/05/21 13:52:53;;;;;;;7.32;6.25;;;18.40;97.50;;;;;;25963937;22;20342;-58
2023/05/21 14:02:58;;;;;;;10.10;6.57;;;18.20;98.20;;;;;;25936316;22;20008;-59
2023/05/21 14:13:00;;;;;;;7.20;6.30;;;17.80;99.30;;;;;;25963944;22;20004;-59
2023/05/21 14:23:02;;;;;;;8.63;6.07;;;18.00;99.90;;;;;;25967216;22;20504;-60
2023/05/21 14:33:03;;;;;;;7.55;6.13;;;17.90;99.90;;;;;;25972331;22;20003;-60
2023/05/21 14:43:08;;;;;;;9.85;5.93;;;18.00;99.70;;;;;;25972133;22;20004;-62
2023/05/21 14:53:11;;;;;;;7.93;6.50;;;20.00;97.80;;;;;;25971274;22;20059;-61
2023/05/21 15:03:12;;;;;;;7.70;5.70;;;22.10;96.10;;;;;;25943787;22;20065;-61
2023/05/21 15:13:14;;;;;;;6.80;5.82;;;22.50;96.20;;;;;;25971254;22;20397;-61
2023/05/21 15:23:16;;;;;;;6.15;5.50;;;23.00;91.10;;;;;;25970466;22;20007;-59
2023/05/21 15:33:17;;;;;;;6.70;5.72;;;20.50;96.80;;;;;;25969399;22;20101;-60
2023/05/21 15:43:19;;;;;;;7.07;5.88;;;18.90;99.00;;;;;;25969884;22;20003;-63
2023/05/21 15:53:21;;;;;;;6.25;5.25;;;19.90;99.90;;;;;;25941691;22;20007;-63
2023/05/21 16:03:22;;;;;;;6.57;5.82;;;21.40;97.40;;;;;;25940271;22;20065;-63
2023/05/21 16:13:24;;;;;;;5.90;5.10;;;21.40;96.70;;;;;;25968515;22;20327;-59
2023/05/21 16:23:25;;;;;;;6.68;6.00;;;20.10;98.80;;;;;;25967743;22;20004;-59
2023/05/21 16:33:27;;;;;;;8.13;6.45;;;19.30;97.30;;;;;;25966582;22;20494;-59
2023/05/21 16:43:29;;;;;;;9.30;6.28;;;18.70;99.50;;;;;;25969293;22;20004;-58
2023/05/21 16:53:30;;;;;;;7.00;5.60;;;17.50;99.90;;;;;;25939113;22;20342;-58
2023/05/21 17:03:32;;;;;;;6.07;5.03;;;16.80;99.90;;;;;;25938969;22;20085;-58
2023/05/21 17:13:34;;;;;;;8.43;5.03;;;16.50;99.90;;;;;;25966468;22;19999;-59
2023/05/21 17:23:36;;;;;;;6.15;5.15;;;16.60;99.90;;;;;;25965640;22;20500;-58
2023/05/21 17:33:38;;;;;;;8.02;5.07;;;16.30;99.90;;;;;;25936293;22;20451;-58
2023/05/21 17:43:40;;;;;;;8.90;5.80;;;15.30;99.90;;;;;;25965145;22;20000;-58
2023/05/21 17:53:41;;;;;;;8.60;6.07;;;14.30;99.90;;;;;;25964441;22;20011;-57
2023/05/21 18:03:43;;;;;;;10.52;6.15;;;13.70;99.90;;;;;;25964313;22;20008;-57
2023/05/21 18:13:45;;;;;;;8.77;6.03;;;13.30;99.90;;;;;;25964477;22;20010;-57
2023/05/21 18:23:46;;;;;;;8.35;6.60;;;13.00;99.90;;;;;;25963967;22;20003;-57
2023/05/21 18:33:48;;;;;;;11.23;6.47;;;12.80;99.90;;;;;;25962880;22;20011;-49
2023/05/21 18:43:49;;;;;;;8.10;6.60;;;12.60;99.90;;;;;;25963858;22;20513;-48
2023/05/21 18:53:51;;;;;;;10.65;7.03;;;12.40;99.90;;;;;;25963263;22;20038;-49
2023/05/21 19:03:53;;;;;;;10.43;7.60;;;12.10;99.90;;;;;;25964536;22;20042;-58
2023/05/21 19:13:54;;;;;;;8.65;7.43;;;11.70;99.90;;;;;;25942207;22;20153;-57
2023/05/21 19:23:56;;;;;;;10.13;8.52;;;11.20;99.90;;;;;;25970540;22;20003;-57
2023/05/21 19:33:57;;;;;;;10.40;7.97;;;11.00;99.90;;;;;;25970345;22;20008;-57
2023/05/21 19:43:59;;;;;;;9.88;8.20;;;11.00;99.90;;;;;;25941885;22;20007;-57
2023/05/21 19:54:01;;;;;;;15.25;8.27;;;11.10;99.90;;;;;;25969402;22;20011;-50
2023/05/21 20:04:02;;;;;;;13.73;8.25;;;11.20;99.90;;;;;;25968959;22;20003;-49
2023/05/21 20:14:04;;;;;;;11.15;8.43;;;11.10;99.90;;;;;;25968960;22;20008;-57
2023/05/21 20:24:07;;;;;;;10.10;8.32;;;10.70;99.90;;;;;;25968269;22;20007;-50
2023/05/21 20:34:11;;;;;;;12.75;8.93;;;10.50;99.90;;;;;;25967703;22;20007;-49
2023/05/21 20:44:12;;;;;;;12.57;8.88;;;10.50;99.90;;;;;;25969761;22;20011;-49
2023/05/21 20:54:14;;;;;;;12.32;8.80;;;10.70;99.90;;;;;;26009189;22;20007;-50
2023/05/21 21:04:16;;;;;;;11.38;8.85;;;10.80;99.90;;;;;;25966575;22;20015;-50
2023/05/21 21:14:18;;;;;;;12.48;9.60;;;10.70;99.90;;;;;;25966346;22;20007;-50
2023/05/21 21:24:19;;;;;;;12.77;7.65;;;10.70;99.90;;;;;;25965610;22;20053;-57
2023/05/21 21:34:23;;;;;;;11.50;8.68;;;11.10;99.90;;;;;;25965131;22;20011;-49
2023/05/21 21:44:24;;;;;;;13.18;8.02;;;11.40;99.90;;;;;;25964992;22;20012;-57
2023/05/21 21:54:26;;;;;;;9.98;7.97;;;11.50;99.90;;;;;;26007025;22;20004;-49
2023/05/21 22:04:28;;;;;;;12.13;7.72;;;11.50;99.90;;;;;;25964633;22;20019;-48
2023/05/21 22:14:29;;;;;;;8.90;6.95;;;11.70;99.90;;;;;;25937458;22;20312;-50
2023/05/21 22:24:31;;;;;;;11.88;7.25;;;12.00;99.90;;;;;;25964041;22;20073;-47
2023/05/21 22:34:33;;;;;;;10.75;8.60;;;12.50;99.90;;;;;;25964000;22;20003;-49
2023/05/21 22:44:34;;;;;;;14.07;11.35;;;12.10;99.90;;;;;;25967241;22;20431;-46
2023/05/21 22:54:36;;;;;;;16.88;12.68;;;11.50;99.90;;;;;;26014235;22;20053;-47
2023/05/21 23:04:37;;;;;;;18.25;14.73;;;10.90;99.90;;;;;;25971430;22;20018;-46
2023/05/21 23:14:39;;;;;;;19.40;15.32;;;10.60;99.90;;;;;;25971148;22;20362;-58
2023/05/21 23:24:40;;;;;;;17.45;13.35;;;10.60;99.90;;;;;;25972075;22;20504;-45
2023/05/21 23:34:42;;;;;;;17.10;13.93;;;10.60;99.90;;;;;;25970260;22;20003;-46
2023/05/21 23:44:44;;;;;;;19.25;12.82;;;10.60;99.90;;;;;;25969704;22;20007;-52
2023/05/21 23:54:45;;;;;;;17.08;13.20;;;10.60;99.90;;;;;;25969208;22;20034;-57
